createdAt,value
2023-03-19T19:03:29.752Z,100306.25
2023-03-19T19:05:56.828Z,100303.07
2023-03-19T19:08:25.632Z,100302.07
2023-03-19T19:10:59.050Z,100305.88
2023-03-19T19:13:30.570Z,100307.24
2023-03-19T19:15:57.815Z,100308.79
2023-03-19T19:18:30.024Z,100306.13
2023-03-19T19:21:00.265Z,100300.15
2023-03-19T19:23:27.754Z,100302.00
2023-03-19T19:25:56.412Z,100303.55
2023-03-19T19:28:30.850Z,100297.94
2023-03-19T19:30:59.927Z,100299.36
2023-03-19T19:33:31.962Z,100303.88
2023-03-19T19:35:59.288Z,100306.22
2023-03-19T19:38:26.763Z,100309.19
2023-03-19T19:40:56.746Z,100306.85
2023-03-19T19:43:24.922Z,100308.43
2023-03-19T19:45:54.870Z,100309.33
2023-03-19T19:48:26.281Z,100307.44
2023-03-19T19:50:55.383Z,100306.35
2023-03-19T19:53:25.444Z,100308.66
2023-03-19T19:55:53.357Z,100309.01
2023-03-19T19:58:27.350Z,100308.81
2023-03-19T20:01:03.338Z,100301.44
2023-03-19T20:03:33.302Z,100301.54
2023-03-19T20:06:01.681Z,100304.19
2023-03-19T20:08:29.078Z,100309.34
2023-03-19T20:10:57.227Z,100312.90
2023-03-19T20:13:29.268Z,100312.67
2023-03-19T20:15:58.883Z,100313.52
2023-03-19T20:18:32.269Z,100312.42
2023-03-19T20:20:59.789Z,100310.17
2023-03-19T20:23:27.083Z,100305.61
2023-03-19T20:25:55.392Z,100303.99
2023-03-19T20:28:32.601Z,100305.47
2023-03-19T20:31:01.354Z,100304.81
2023-03-19T20:33:31.559Z,100305.50
2023-03-19T20:35:58.948Z,100301.08
2023-03-19T20:38:27.650Z,100301.19
2023-03-19T20:40:57.207Z,100299.34
2023-03-19T20:43:33.973Z,100300.39
2023-03-19T20:46:04.592Z,100292.92
2023-03-19T20:48:33.023Z,100294.70
2023-03-19T20:51:01.672Z,100293.90
2023-03-19T20:53:29.155Z,100290.45
2023-03-19T20:55:56.765Z,100287.02
2023-03-19T20:58:34.762Z,100289.70
2023-03-19T21:01:03.136Z,100287.40
2023-03-19T21:03:32.771Z,100286.33
2023-03-19T21:06:07.621Z,100283.09
2023-03-19T21:08:39.364Z,100280.38
2023-03-19T21:11:11.678Z,100281.48
2023-03-19T21:13:38.647Z,100283.33
2023-03-19T21:16:06.046Z,100285.00
2023-03-19T21:18:32.914Z,100282.50
2023-03-19T21:21:00.151Z,100284.57
2023-03-19T21:23:35.006Z,100287.91
2023-03-19T21:26:17.119Z,100289.70
2023-03-19T21:28:46.850Z,100290.76
2023-03-19T21:31:18.919Z,100288.34
2023-03-19T21:33:47.821Z,100291.68
2023-03-19T21:36:16.018Z,100292.73
2023-03-19T21:38:43.519Z,100291.70
2023-03-19T21:41:26.682Z,100292.55
2023-03-19T21:43:57.561Z,100292.36
2023-03-19T21:46:27.975Z,100289.52
2023-03-19T21:48:56.476Z,100288.02
2023-03-19T21:51:25.490Z,100285.45
2023-03-19T21:53:52.857Z,100283.06
2023-03-19T21:56:25.934Z,100284.95
2023-03-19T21:58:54.314Z,100285.07
2023-03-19T22:01:24.954Z,100281.27
2023-03-19T22:03:53.587Z,100274.45
2023-03-19T22:06:22.394Z,100277.30
2023-03-19T22:08:51.374Z,100279.89
2023-03-19T22:11:27.024Z,100277.83
2023-03-19T22:13:56.086Z,100276.59
2023-03-19T22:16:25.140Z,100277.04
2023-03-19T22:18:53.611Z,100276.80
2023-03-19T22:21:22.749Z,100276.27
2023-03-19T22:23:51.602Z,100272.73
2023-03-19T22:26:28.824Z,100268.58
2023-03-19T22:28:58.893Z,100273.41
2023-03-19T22:31:26.586Z,100270.26
2023-03-19T22:33:54.205Z,100273.45
2023-03-19T22:36:21.384Z,100276.50
2023-03-19T22:38:55.056Z,100271.64
2023-03-19T22:41:34.389Z,100268.50
2023-03-19T22:44:04.936Z,100266.06
2023-03-19T22:46:33.093Z,100265.44
2023-03-19T22:49:00.101Z,100264.74
2023-03-19T22:51:28.168Z,100264.61
2023-03-19T22:53:56.133Z,100263.73
2023-03-19T22:56:23.522Z,100263.58
2023-03-19T22:58:50.864Z,100262.16
2023-03-19T23:01:21.478Z,100263.69
2023-03-19T23:03:50.054Z,100265.30
2023-03-19T23:06:29.749Z,100264.51
2023-03-19T23:08:58.539Z,100263.49
2023-03-19T23:11:25.719Z,100265.47
2023-03-19T23:13:54.649Z,100262.76
2023-03-19T23:16:25.331Z,100262.46
2023-03-19T23:21:21.573Z,100259.84
2023-03-19T23:23:48.926Z,100260.15
2023-03-19T23:26:33.634Z,100256.69
2023-03-19T23:29:06.653Z,100252.69
2023-03-19T23:31:34.554Z,100251.86
2023-03-19T23:34:01.726Z,100248.98
2023-03-19T23:36:28.626Z,100245.46
2023-03-19T23:38:56.659Z,100248.25
2023-03-19T23:41:26.838Z,100246.86
2023-03-19T23:43:54.998Z,100243.13
2023-03-19T23:46:22.414Z,100242.77
2023-03-19T23:48:49.412Z,100244.07
2023-03-19T23:51:17.162Z,100244.13
2023-03-19T23:53:44.642Z,100246.92
2023-03-19T23:56:17.235Z,100244.17
2023-03-19T23:58:44.297Z,100240.39
